sensor_id;sensor_type;location;lat;lon;timestamp;temperature;humidity
8858;DHT22;4465;50.904;4.696;2022-09-30T00:00:18;8.20;99.90
8858;DHT22;4465;50.904;4.696;2022-09-30T00:02:44;8.10;99.90
8858;DHT22;4465;50.904;4.696;2022-09-30T00:05:11;8.10;99.90
8858;DHT22;4465;50.904;4.696;2022-09-30T00:07:36;8.10;99.90
8858;DHT22;4465;50.904;4.696;2022-09-30T00:10:05;8.20;99.90
8858;DHT22;4465;50.904;4.696;2022-09-30T00:12:33;8.10;99.90
8858;DHT22;4465;50.904;4.696;2022-09-30T00:14:59;8.10;99.90
8858;DHT22;4465;50.904;4.696;2022-09-30T00:17:25;8.00;99.90
8858;DHT22;4465;50.904;4.696;2022-09-30T00:19:52;8.00;99.90
8858;DHT22;4465;50.904;4.696;2022-09-30T00:22:18;8.00;99.90
8858;DHT22;4465;50.904;4.696;2022-09-30T00:24:44;8.00;99.90
8858;DHT22;4465;50.904;4.696;2022-09-30T00:27:13;7.90;99.90
8858;DHT22;4465;50.904;4.696;2022-09-30T00:29:43;7.90;99.90
8858;DHT22;4465;50.904;4.696;2022-09-30T00:32:11;7.90;99.90
8858;DHT22;4465;50.904;4.696;2022-09-30T00:34:38;7.90;99.90
8858;DHT22;4465;50.904;4.696;2022-09-30T00:37:04;7.80;99.90
8858;DHT22;4465;50.904;4.696;2022-09-30T00:39:33;7.90;99.90
8858;DHT22;4465;50.904;4.696;2022-09-30T00:42:02;7.90;99.90
8858;DHT22;4465;50.904;4.696;2022-09-30T00:44:41;7.90;99.90
8858;DHT22;4465;50.904;4.696;2022-09-30T00:50:12;7.70;99.90
8858;DHT22;4465;50.904;4.696;2022-09-30T00:52:40;7.70;99.90
8858;DHT22;4465;50.904;4.696;2022-09-30T00:55:08;7.70;99.90
8858;DHT22;4465;50.904;4.696;2022-09-30T00:57:38;7.70;99.90
8858;DHT22;4465;50.904;4.696;2022-09-30T01:00:05;7.60;99.90
8858;DHT22;4465;50.904;4.696;2022-09-30T01:02:31;7.60;99.90
8858;DHT22;4465;50.904;4.696;2022-09-30T01:04:58;7.60;99.90
8858;DHT22;4465;50.904;4.696;2022-09-30T01:07:26;7.60;99.90
8858;DHT22;4465;50.904;4.696;2022-09-30T01:09:53;7.50;99.90
8858;DHT22;4465;50.904;4.696;2022-09-30T01:12:23;7.50;99.90
8858;DHT22;4465;50.904;4.696;2022-09-30T01:14:49;7.50;99.90
8858;DHT22;4465;50.904;4.696;2022-09-30T01:22:16;7.50;99.90
8858;DHT22;4465;50.904;4.696;2022-09-30T01:32:36;7.40;99.90
8858;DHT22;4465;50.904;4.696;2022-09-30T01:38:06;7.40;99.90
8858;DHT22;4465;50.904;4.696;2022-09-30T01:45:46;7.40;99.90
8858;DHT22;4465;50.904;4.696;2022-09-30T01:48:25;7.30;99.90
8858;DHT22;4465;50.904;4.696;2022-09-30T01:50:58;7.30;99.90
8858;DHT22;4465;50.904;4.696;2022-09-30T01:53:30;7.30;99.90
8858;DHT22;4465;50.904;4.696;2022-09-30T01:56:00;7.40;99.90
8858;DHT22;4465;50.904;4.696;2022-09-30T01:58:37;7.30;99.90
8858;DHT22;4465;50.904;4.696;2022-09-30T02:01:06;7.30;99.90
8858;DHT22;4465;50.904;4.696;2022-09-30T02:03:39;7.40;99.90
8858;DHT22;4465;50.904;4.696;2022-09-30T02:06:13;7.30;99.90
8858;DHT22;4465;50.904;4.696;2022-09-30T02:08:42;7.30;99.90
8858;DHT22;4465;50.904;4.696;2022-09-30T02:11:13;7.20;99.90
8858;DHT22;4465;50.904;4.696;2022-09-30T02:16:07;7.30;99.90
8858;DHT22;4465;50.904;4.696;2022-09-30T02:18:37;7.30;99.90
8858;DHT22;4465;50.904;4.696;2022-09-30T02:21:07;7.30;99.90
8858;DHT22;4465;50.904;4.696;2022-09-30T02:23:34;7.30;99.90
8858;DHT22;4465;50.904;4.696;2022-09-30T02:26:05;7.30;99.90
8858;DHT22;4465;50.904;4.696;2022-09-30T02:28:34;7.20;99.90
8858;DHT22;4465;50.904;4.696;2022-09-30T02:31:03;7.30;99.90
8858;DHT22;4465;50.904;4.696;2022-09-30T02:35:57;7.30;99.90
8858;DHT22;4465;50.904;4.696;2022-09-30T02:38:29;7.20;99.90
8858;DHT22;4465;50.904;4.696;2022-09-30T02:40:57;7.30;99.90
8858;DHT22;4465;50.904;4.696;2022-09-30T02:43:26;7.30;99.90
8858;DHT22;4465;50.904;4.696;2022-09-30T02:51:05;7.20;99.90
8858;DHT22;4465;50.904;4.696;2022-09-30T02:53:36;7.20;99.90
8858;DHT22;4465;50.904;4.696;2022-09-30T02:56:12;7.20;99.90
8858;DHT22;4465;50.904;4.696;2022-09-30T02:58:42;7.20;99.90
8858;DHT22;4465;50.904;4.696;2022-09-30T03:01:09;7.40;99.90
8858;DHT22;4465;50.904;4.696;2022-09-30T03:03:46;7.20;99.90
8858;DHT22;4465;50.904;4.696;2022-09-30T03:06:14;7.20;99.90
8858;DHT22;4465;50.904;4.696;2022-09-30T03:08:41;7.20;99.90
8858;DHT22;4465;50.904;4.696;2022-09-30T03:11:11;7.20;99.90
8858;DHT22;4465;50.904;4.696;2022-09-30T03:19:12;7.20;99.90
8858;DHT22;4465;50.904;4.696;2022-09-30T03:26:42;7.20;99.90
8858;DHT22;4465;50.904;4.696;2022-09-30T03:29:16;7.20;99.90
8858;DHT22;4465;50.904;4.696;2022-09-30T03:37:19;7.20;99.90
8858;DHT22;4465;50.904;4.696;2022-09-30T03:42:54;7.20;99.90
8858;DHT22;4465;50.904;4.696;2022-09-30T03:47:42;7.20;99.90
8858;DHT22;4465;50.904;4.696;2022-09-30T03:50:10;7.10;99.90
8858;DHT22;4465;50.904;4.696;2022-09-30T03:52:36;7.10;99.90
8858;DHT22;4465;50.904;4.696;2022-09-30T03:55:03;7.10;99.90
8858;DHT22;4465;50.904;4.696;2022-09-30T03:57:30;7.10;99.90
8858;DHT22;4465;50.904;4.696;2022-09-30T03:59:58;7.20;99.90
8858;DHT22;4465;50.904;4.696;2022-09-30T04:02:25;7.10;99.90
8858;DHT22;4465;50.904;4.696;2022-09-30T04:04:51;7.10;99.90
8858;DHT22;4465;50.904;4.696;2022-09-30T04:07:17;7.10;99.90
8858;DHT22;4465;50.904;4.696;2022-09-30T04:09:43;7.10;99.90
8858;DHT22;4465;50.904;4.696;2022-09-30T04:12:09;7.10;99.90
8858;DHT22;4465;50.904;4.696;2022-09-30T04:14:38;7.10;99.90
8858;DHT22;4465;50.904;4.696;2022-09-30T04:17:06;7.10;99.90
8858;DHT22;4465;50.904;4.696;2022-09-30T04:19:32;7.10;99.90
8858;DHT22;4465;50.904;4.696;2022-09-30T04:22:05;7.10;99.90
8858;DHT22;4465;50.904;4.696;2022-09-30T04:24:31;7.10;99.90
8858;DHT22;4465;50.904;4.696;2022-09-30T04:26:57;7.10;99.90
8858;DHT22;4465;50.904;4.696;2022-09-30T04:29:31;7.10;99.90
8858;DHT22;4465;50.904;4.696;2022-09-30T04:31:59;7.10;99.90
8858;DHT22;4465;50.904;4.696;2022-09-30T04:34:25;7.10;99.90
8858;DHT22;4465;50.904;4.696;2022-09-30T04:36:51;7.00;99.90
8858;DHT22;4465;50.904;4.696;2022-09-30T04:39:19;7.00;99.90
8858;DHT22;4465;50.904;4.696;2022-09-30T04:41:45;7.00;99.90
8858;DHT22;4465;50.904;4.696;2022-09-30T04:44:11;7.00;99.90
8858;DHT22;4465;50.904;4.696;2022-09-30T04:46:38;7.00;99.90
8858;DHT22;4465;50.904;4.696;2022-09-30T04:49:04;7.00;99.90
8858;DHT22;4465;50.904;4.696;2022-09-30T04:51:30;7.00;99.90
8858;DHT22;4465;50.904;4.696;2022-09-30T04:53:56;7.00;99.90
8858;DHT22;4465;50.904;4.696;2022-09-30T04:56:22;7.00;99.90
8858;DHT22;4465;50.904;4.696;2022-09-30T04:58:50;7.00;99.90
8858;DHT22;4465;50.904;4.696;2022-09-30T05:01:16;7.00;99.90
8858;DHT22;4465;50.904;4.696;2022-09-30T05:03:42;7.00;99.90
8858;DHT22;4465;50.904;4.696;2022-09-30T05:06:09;7.00;99.90
8858;DHT22;4465;50.904;4.696;2022-09-30T05:08:35;7.00;99.90
8858;DHT22;4465;50.904;4.696;2022-09-30T05:11:02;7.00;99.90
8858;DHT22;4465;50.904;4.696;2022-09-30T05:13:34;7.00;99.90
8858;DHT22;4465;50.904;4.696;2022-09-30T05:16:01;7.00;99.90
8858;DHT22;4465;50.904;4.696;2022-09-30T05:18:27;7.00;99.90
8858;DHT22;4465;50.904;4.696;2022-09-30T05:20:56;7.00;99.90
8858;DHT22;4465;50.904;4.696;2022-09-30T05:23:22;7.00;99.90
8858;DHT22;4465;50.904;4.696;2022-09-30T05:25:50;7.00;99.90
8858;DHT22;4465;50.904;4.696;2022-09-30T05:28:16;7.00;99.90
8858;DHT22;4465;50.904;4.696;2022-09-30T05:30:42;6.90;99.90
8858;DHT22;4465;50.904;4.696;2022-09-30T05:33:08;6.90;99.90
8858;DHT22;4465;50.904;4.696;2022-09-30T05:35:37;6.90;99.90
8858;DHT22;4465;50.904;4.696;2022-09-30T05:38:03;6.90;99.90
8858;DHT22;4465;50.904;4.696;2022-09-30T05:40:30;7.00;99.90
8858;DHT22;4465;50.904;4.696;2022-09-30T05:43:01;7.00;99.90
8858;DHT22;4465;50.904;4.696;2022-09-30T05:45:26;6.90;99.90
8858;DHT22;4465;50.904;4.696;2022-09-30T05:47:53;6.90;99.90
8858;DHT22;4465;50.904;4.696;2022-09-30T05:50:22;6.90;99.90
8858;DHT22;4465;50.904;4.696;2022-09-30T05:52:52;7.00;99.90
8858;DHT22;4465;50.904;4.696;2022-09-30T05:55:21;6.90;99.90
8858;DHT22;4465;50.904;4.696;2022-09-30T05:57:48;6.90;99.90
8858;DHT22;4465;50.904;4.696;2022-09-30T06:00:14;6.90;99.90
8858;DHT22;4465;50.904;4.696;2022-09-30T06:02:41;6.90;99.90
8858;DHT22;4465;50.904;4.696;2022-09-30T06:05:07;6.90;99.90
8858;DHT22;4465;50.904;4.696;2022-09-30T06:07:33;6.90;99.90
8858;DHT22;4465;50.904;4.696;2022-09-30T06:10:00;6.90;99.90
8858;DHT22;4465;50.904;4.696;2022-09-30T06:12:26;6.90;99.90
8858;DHT22;4465;50.904;4.696;2022-09-30T06:14:53;7.00;99.90
8858;DHT22;4465;50.904;4.696;2022-09-30T06:17:19;7.00;99.90
8858;DHT22;4465;50.904;4.696;2022-09-30T06:19:46;7.10;99.90
8858;DHT22;4465;50.904;4.696;2022-09-30T06:22:12;7.00;99.90
8858;DHT22;4465;50.904;4.696;2022-09-30T06:24:38;6.90;99.90
8858;DHT22;4465;50.904;4.696;2022-09-30T06:27:04;7.00;99.90
8858;DHT22;4465;50.904;4.696;2022-09-30T06:29:33;7.00;99.90
8858;DHT22;4465;50.904;4.696;2022-09-30T06:31:58;7.00;99.90
8858;DHT22;4465;50.904;4.696;2022-09-30T06:34:25;7.10;99.90
8858;DHT22;4465;50.904;4.696;2022-09-30T06:36:51;7.10;99.90
8858;DHT22;4465;50.904;4.696;2022-09-30T06:39:18;7.10;99.90
8858;DHT22;4465;50.904;4.696;2022-09-30T06:41:45;7.20;99.90
8858;DHT22;4465;50.904;4.696;2022-09-30T06:44:11;7.10;99.90
8858;DHT22;4465;50.904;4.696;2022-09-30T06:46:37;7.20;99.90
8858;DHT22;4465;50.904;4.696;2022-09-30T06:49:03;7.20;99.90
8858;DHT22;4465;50.904;4.696;2022-09-30T06:51:33;7.20;99.90
8858;DHT22;4465;50.904;4.696;2022-09-30T06:54:00;7.20;99.90
8858;DHT22;4465;50.904;4.696;2022-09-30T06:56:26;7.30;99.90
8858;DHT22;4465;50.904;4.696;2022-09-30T06:58:52;7.40;99.90
8858;DHT22;4465;50.904;4.696;2022-09-30T07:01:19;7.40;99.90
8858;DHT22;4465;50.904;4.696;2022-09-30T07:03:49;7.40;99.90
8858;DHT22;4465;50.904;4.696;2022-09-30T07:06:15;7.50;99.90
8858;DHT22;4465;50.904;4.696;2022-09-30T07:08:41;7.50;99.90
8858;DHT22;4465;50.904;4.696;2022-09-30T07:11:08;7.50;99.90
8858;DHT22;4465;50.904;4.696;2022-09-30T07:13:39;7.60;99.90
8858;DHT22;4465;50.904;4.696;2022-09-30T07:16:06;7.70;99.90
8858;DHT22;4465;50.904;4.696;2022-09-30T07:18:32;7.80;99.90
8858;DHT22;4465;50.904;4.696;2022-09-30T07:20:59;7.80;99.90
8858;DHT22;4465;50.904;4.696;2022-09-30T07:23:27;8.00;99.90
8858;DHT22;4465;50.904;4.696;2022-09-30T07:25:54;8.10;99.90
8858;DHT22;4465;50.904;4.696;2022-09-30T07:28:25;8.10;99.90
8858;DHT22;4465;50.904;4.696;2022-09-30T07:30:53;8.20;99.90
8858;DHT22;4465;50.904;4.696;2022-09-30T07:33:26;8.30;99.90
8858;DHT22;4465;50.904;4.696;2022-09-30T07:35:56;8.60;99.90
8858;DHT22;4465;50.904;4.696;2022-09-30T07:38:24;8.80;99.90
8858;DHT22;4465;50.904;4.696;2022-09-30T07:40:57;9.10;99.90
8858;DHT22;4465;50.904;4.696;2022-09-30T07:43:27;9.40;99.90
8858;DHT22;4465;50.904;4.696;2022-09-30T07:46:10;9.60;99.90
8858;DHT22;4465;50.904;4.696;2022-09-30T07:48:40;9.60;99.90
8858;DHT22;4465;50.904;4.696;2022-09-30T07:51:31;9.70;99.90
8858;DHT22;4465;50.904;4.696;2022-09-30T07:54:01;9.70;99.90
8858;DHT22;4465;50.904;4.696;2022-09-30T07:56:27;9.80;99.90
8858;DHT22;4465;50.904;4.696;2022-09-30T07:58:53;9.80;99.90
8858;DHT22;4465;50.904;4.696;2022-09-30T08:01:20;9.80;99.90
8858;DHT22;4465;50.904;4.696;2022-09-30T08:03:46;9.90;99.90
8858;DHT22;4465;50.904;4.696;2022-09-30T08:06:14;9.90;99.90
8858;DHT22;4465;50.904;4.696;2022-09-30T08:08:40;10.10;99.90
8858;DHT22;4465;50.904;4.696;2022-09-30T08:11:07;10.00;99.90
8858;DHT22;4465;50.904;4.696;2022-09-30T08:13:33;10.00;99.90
8858;DHT22;4465;50.904;4.696;2022-09-30T08:15:59;10.10;99.90
8858;DHT22;4465;50.904;4.696;2022-09-30T08:18:25;10.10;99.90
8858;DHT22;4465;50.904;4.696;2022-09-30T08:20:54;10.20;99.90
8858;DHT22;4465;50.904;4.696;2022-09-30T08:23:20;10.30;99.90
8858;DHT22;4465;50.904;4.696;2022-09-30T08:25:46;10.30;99.90
8858;DHT22;4465;50.904;4.696;2022-09-30T08:28:12;10.40;99.90
8858;DHT22;4465;50.904;4.696;2022-09-30T08:30:39;10.40;99.90
8858;DHT22;4465;50.904;4.696;2022-09-30T08:33:07;10.50;99.90
8858;DHT22;4465;50.904;4.696;2022-09-30T08:35:33;10.60;99.90
8858;DHT22;4465;50.904;4.696;2022-09-30T08:38:02;10.60;99.90
8858;DHT22;4465;50.904;4.696;2022-09-30T08:40:33;10.60;99.90
8858;DHT22;4465;50.904;4.696;2022-09-30T08:43:10;10.70;99.90
8858;DHT22;4465;50.904;4.696;2022-09-30T08:53:30;11.00;99.90
8858;DHT22;4465;50.904;4.696;2022-09-30T08:55:57;11.10;99.90
8858;DHT22;4465;50.904;4.696;2022-09-30T08:58:37;11.10;99.90
8858;DHT22;4465;50.904;4.696;2022-09-30T09:01:11;11.20;99.90
8858;DHT22;4465;50.904;4.696;2022-09-30T09:03:40;11.30;99.90
8858;DHT22;4465;50.904;4.696;2022-09-30T09:08:58;11.40;99.90
8858;DHT22;4465;50.904;4.696;2022-09-30T09:16:34;11.70;99.90
8858;DHT22;4465;50.904;4.696;2022-09-30T09:19:06;11.70;99.90
8858;DHT22;4465;50.904;4.696;2022-09-30T09:24:01;11.90;99.90
8858;DHT22;4465;50.904;4.696;2022-09-30T09:26:33;12.00;99.90
8858;DHT22;4465;50.904;4.696;2022-09-30T09:31:44;12.10;99.90
8858;DHT22;4465;50.904;4.696;2022-09-30T09:34:11;12.20;99.90
8858;DHT22;4465;50.904;4.696;2022-09-30T09:44:38;12.50;99.90
8858;DHT22;4465;50.904;4.696;2022-09-30T09:47:08;12.50;99.90
8858;DHT22;4465;50.904;4.696;2022-09-30T09:50:13;12.60;99.90
8858;DHT22;4465;50.904;4.696;2022-09-30T09:55:04;12.70;99.90
8858;DHT22;4465;50.904;4.696;2022-09-30T09:57:33;12.80;99.90
8858;DHT22;4465;50.904;4.696;2022-09-30T10:00:04;12.90;99.90
8858;DHT22;4465;50.904;4.696;2022-09-30T10:02:59;12.90;99.90
8858;DHT22;4465;50.904;4.696;2022-09-30T10:05:26;13.00;99.90
8858;DHT22;4465;50.904;4.696;2022-09-30T10:08:12;13.10;99.90
8858;DHT22;4465;50.904;4.696;2022-09-30T10:10:42;13.20;99.90
8858;DHT22;4465;50.904;4.696;2022-09-30T10:13:13;13.30;99.90
8858;DHT22;4465;50.904;4.696;2022-09-30T10:15:41;13.30;99.90
8858;DHT22;4465;50.904;4.696;2022-09-30T10:18:15;13.40;99.90
8858;DHT22;4465;50.904;4.696;2022-09-30T10:20:48;13.50;99.90
8858;DHT22;4465;50.904;4.696;2022-09-30T10:23:18;13.60;99.90
8858;DHT22;4465;50.904;4.696;2022-09-30T10:26:04;13.60;99.90
8858;DHT22;4465;50.904;4.696;2022-09-30T10:28:33;13.60;99.90
8858;DHT22;4465;50.904;4.696;2022-09-30T10:31:02;13.70;99.90
8858;DHT22;4465;50.904;4.696;2022-09-30T10:33:34;13.70;99.90
8858;DHT22;4465;50.904;4.696;2022-09-30T10:36:06;13.80;99.90
8858;DHT22;4465;50.904;4.696;2022-09-30T10:38:36;13.80;99.90
8858;DHT22;4465;50.904;4.696;2022-09-30T10:41:02;13.90;99.90
8858;DHT22;4465;50.904;4.696;2022-09-30T10:43:30;14.00;99.90
8858;DHT22;4465;50.904;4.696;2022-09-30T10:46:01;14.00;99.90
8858;DHT22;4465;50.904;4.696;2022-09-30T10:48:30;14.10;99.90
8858;DHT22;4465;50.904;4.696;2022-09-30T10:50:58;14.20;99.90
8858;DHT22;4465;50.904;4.696;2022-09-30T10:53:27;14.20;99.90
8858;DHT22;4465;50.904;4.696;2022-09-30T10:55:54;14.20;99.90
8858;DHT22;4465;50.904;4.696;2022-09-30T11:00:52;14.40;99.90
8858;DHT22;4465;50.904;4.696;2022-09-30T11:03:21;14.50;99.90
8858;DHT22;4465;50.904;4.696;2022-09-30T11:05:52;14.50;99.90
8858;DHT22;4465;50.904;4.696;2022-09-30T11:09:08;14.60;99.90
8858;DHT22;4465;50.904;4.696;2022-09-30T11:11:09;14.60;99.90
8858;DHT22;4465;50.904;4.696;2022-09-30T11:16:20;14.80;99.90
8858;DHT22;4465;50.904;4.696;2022-09-30T11:21:25;15.00;99.90
8858;DHT22;4465;50.904;4.696;2022-09-30T11:23:56;15.10;99.90
8858;DHT22;4465;50.904;4.696;2022-09-30T11:31:29;15.30;99.90
8858;DHT22;4465;50.904;4.696;2022-09-30T11:36:46;15.50;99.90
8858;DHT22;4465;50.904;4.696;2022-09-30T11:42:04;15.50;99.90
8858;DHT22;4465;50.904;4.696;2022-09-30T11:44:35;15.40;99.90
8858;DHT22;4465;50.904;4.696;2022-09-30T11:49:38;15.40;99.90
8858;DHT22;4465;50.904;4.696;2022-09-30T11:57:04;15.50;99.90
8858;DHT22;4465;50.904;4.696;2022-09-30T11:59:40;15.50;99.90
8858;DHT22;4465;50.904;4.696;2022-09-30T12:04:48;15.40;99.90
8858;DHT22;4465;50.904;4.696;2022-09-30T12:07:34;15.50;99.90
8858;DHT22;4465;50.904;4.696;2022-09-30T12:10:19;15.60;99.90
8858;DHT22;4465;50.904;4.696;2022-09-30T12:12:48;15.60;99.90
8858;DHT22;4465;50.904;4.696;2022-09-30T12:15:16;15.60;99.90
8858;DHT22;4465;50.904;4.696;2022-09-30T12:17:45;15.60;99.90
8858;DHT22;4465;50.904;4.696;2022-09-30T12:20:22;15.50;99.90
8858;DHT22;4465;50.904;4.696;2022-09-30T12:22:51;15.60;99.90
8858;DHT22;4465;50.904;4.696;2022-09-30T12:25:20;15.50;99.90
8858;DHT22;4465;50.904;4.696;2022-09-30T12:27:52;15.50;99.90
8858;DHT22;4465;50.904;4.696;2022-09-30T12:30:23;15.50;99.90
8858;DHT22;4465;50.904;4.696;2022-09-30T12:36:01;15.40;99.90
8858;DHT22;4465;50.904;4.696;2022-09-30T12:41:05;15.30;99.90
8858;DHT22;4465;50.904;4.696;2022-09-30T12:48:48;15.40;99.90
8858;DHT22;4465;50.904;4.696;2022-09-30T12:51:20;15.40;99.90
8858;DHT22;4465;50.904;4.696;2022-09-30T12:53:48;15.50;99.90
8858;DHT22;4465;50.904;4.696;2022-09-30T12:56:15;15.60;99.90
8858;DHT22;4465;50.904;4.696;2022-09-30T12:58:42;15.70;99.90
8858;DHT22;4465;50.904;4.696;2022-09-30T13:01:11;15.80;99.90
8858;DHT22;4465;50.904;4.696;2022-09-30T13:03:43;15.80;99.90
8858;DHT22;4465;50.904;4.696;2022-09-30T13:06:10;15.90;99.90
8858;DHT22;4465;50.904;4.696;2022-09-30T13:09:05;15.80;99.90
8858;DHT22;4465;50.904;4.696;2022-09-30T13:11:39;15.80;99.90
8858;DHT22;4465;50.904;4.696;2022-09-30T13:14:16;15.80;99.90
8858;DHT22;4465;50.904;4.696;2022-09-30T13:19:33;15.90;99.90
8858;DHT22;4465;50.904;4.696;2022-09-30T13:22:43;15.90;99.90
8858;DHT22;4465;50.904;4.696;2022-09-30T13:27:42;16.00;99.90
8858;DHT22;4465;50.904;4.696;2022-09-30T13:32:41;16.00;99.90
8858;DHT22;4465;50.904;4.696;2022-09-30T13:38:15;16.00;99.90
8858;DHT22;4465;50.904;4.696;2022-09-30T13:40:50;16.00;99.90
8858;DHT22;4465;50.904;4.696;2022-09-30T13:48:38;16.00;99.90
8858;DHT22;4465;50.904;4.696;2022-09-30T13:51:07;16.00;99.90
8858;DHT22;4465;50.904;4.696;2022-09-30T13:53:37;16.10;99.90
8858;DHT22;4465;50.904;4.696;2022-09-30T13:56:07;16.00;99.90
8858;DHT22;4465;50.904;4.696;2022-09-30T14:09:48;15.90;99.90
8858;DHT22;4465;50.904;4.696;2022-09-30T14:20:39;15.90;99.90
8858;DHT22;4465;50.904;4.696;2022-09-30T14:23:11;15.90;99.90
8858;DHT22;4465;50.904;4.696;2022-09-30T14:25:39;15.90;99.90
8858;DHT22;4465;50.904;4.696;2022-09-30T14:28:11;15.90;99.90
8858;DHT22;4465;50.904;4.696;2022-09-30T14:30:40;15.90;99.90
8858;DHT22;4465;50.904;4.696;2022-09-30T14:33:18;15.90;99.90
8858;DHT22;4465;50.904;4.696;2022-09-30T14:35:47;15.80;99.90
8858;DHT22;4465;50.904;4.696;2022-09-30T14:38:18;15.70;99.90
8858;DHT22;4465;50.904;4.696;2022-09-30T14:40:52;15.70;99.90
8858;DHT22;4465;50.904;4.696;2022-09-30T14:43:22;15.70;99.90
8858;DHT22;4465;50.904;4.696;2022-09-30T14:45:50;15.60;99.90
8858;DHT22;4465;50.904;4.696;2022-09-30T14:48:21;15.60;99.90
8858;DHT22;4465;50.904;4.696;2022-09-30T14:50:52;15.60;99.90
8858;DHT22;4465;50.904;4.696;2022-09-30T14:53:24;15.60;99.90
8858;DHT22;4465;50.904;4.696;2022-09-30T14:55:51;15.50;99.90
8858;DHT22;4465;50.904;4.696;2022-09-30T15:00:56;15.50;99.90
8858;DHT22;4465;50.904;4.696;2022-09-30T15:03:25;15.50;99.90
8858;DHT22;4465;50.904;4.696;2022-09-30T15:05:52;15.50;99.90
8858;DHT22;4465;50.904;4.696;2022-09-30T15:08:21;15.50;99.90
8858;DHT22;4465;50.904;4.696;2022-09-30T15:10:48;15.50;99.90
8858;DHT22;4465;50.904;4.696;2022-09-30T15:13:15;15.50;99.90
8858;DHT22;4465;50.904;4.696;2022-09-30T15:15:42;15.50;99.90
8858;DHT22;4465;50.904;4.696;2022-09-30T15:18:24;15.50;99.90
8858;DHT22;4465;50.904;4.696;2022-09-30T15:20:53;15.50;99.90
8858;DHT22;4465;50.904;4.696;2022-09-30T15:23:28;15.60;99.90
8858;DHT22;4465;50.904;4.696;2022-09-30T15:25:55;15.60;99.90
8858;DHT22;4465;50.904;4.696;2022-09-30T15:28:22;15.60;99.90
8858;DHT22;4465;50.904;4.696;2022-09-30T15:30:49;15.60;99.90
8858;DHT22;4465;50.904;4.696;2022-09-30T15:33:18;15.60;99.90
8858;DHT22;4465;50.904;4.696;2022-09-30T15:35:47;15.60;99.90
8858;DHT22;4465;50.904;4.696;2022-09-30T15:38:17;15.60;99.90
8858;DHT22;4465;50.904;4.696;2022-09-30T15:40:47;15.60;99.90
8858;DHT22;4465;50.904;4.696;2022-09-30T15:44:00;15.60;99.90
8858;DHT22;4465;50.904;4.696;2022-09-30T15:46:28;15.50;99.90
8858;DHT22;4465;50.904;4.696;2022-09-30T15:49:01;15.50;99.90
8858;DHT22;4465;50.904;4.696;2022-09-30T15:51:30;15.50;99.90
8858;DHT22;4465;50.904;4.696;2022-09-30T15:54:00;15.50;99.90
8858;DHT22;4465;50.904;4.696;2022-09-30T15:56:31;15.40;99.90
8858;DHT22;4465;50.904;4.696;2022-09-30T15:59:07;15.40;99.90
8858;DHT22;4465;50.904;4.696;2022-09-30T16:01:36;15.40;99.90
8858;DHT22;4465;50.904;4.696;2022-09-30T16:09:01;15.30;99.90
8858;DHT22;4465;50.904;4.696;2022-09-30T16:13:56;15.30;99.90
8858;DHT22;4465;50.904;4.696;2022-09-30T16:16:24;15.20;99.90
8858;DHT22;4465;50.904;4.696;2022-09-30T16:18:52;15.20;99.90
8858;DHT22;4465;50.904;4.696;2022-09-30T16:21:29;15.20;99.90
8858;DHT22;4465;50.904;4.696;2022-09-30T16:23:55;15.20;99.90
8858;DHT22;4465;50.904;4.696;2022-09-30T16:26:22;15.10;99.90
8858;DHT22;4465;50.904;4.696;2022-09-30T16:28:53;15.10;99.90
8858;DHT22;4465;50.904;4.696;2022-09-30T16:31:26;15.10;99.90
8858;DHT22;4465;50.904;4.696;2022-09-30T16:33:52;15.00;99.90
8858;DHT22;4465;50.904;4.696;2022-09-30T16:36:19;15.00;99.90
8858;DHT22;4465;50.904;4.696;2022-09-30T16:38:45;14.90;99.90
8858;DHT22;4465;50.904;4.696;2022-09-30T16:41:13;14.80;99.90
8858;DHT22;4465;50.904;4.696;2022-09-30T16:43:40;14.80;99.90
8858;DHT22;4465;50.904;4.696;2022-09-30T16:46:07;14.80;99.90
8858;DHT22;4465;50.904;4.696;2022-09-30T16:48:33;14.70;99.90
8858;DHT22;4465;50.904;4.696;2022-09-30T16:51:03;14.70;99.90
8858;DHT22;4465;50.904;4.696;2022-09-30T16:53:30;14.60;99.90
8858;DHT22;4465;50.904;4.696;2022-09-30T16:55:56;14.60;99.90
8858;DHT22;4465;50.904;4.696;2022-09-30T16:58:24;14.60;99.90
8858;DHT22;4465;50.904;4.696;2022-09-30T17:00:51;14.50;99.90
8858;DHT22;4465;50.904;4.696;2022-09-30T17:03:17;14.50;99.90
8858;DHT22;4465;50.904;4.696;2022-09-30T17:05:44;14.40;99.90
8858;DHT22;4465;50.904;4.696;2022-09-30T17:08:10;14.40;99.90
8858;DHT22;4465;50.904;4.696;2022-09-30T17:10:38;14.40;99.90
8858;DHT22;4465;50.904;4.696;2022-09-30T17:13:04;14.30;99.90
8858;DHT22;4465;50.904;4.696;2022-09-30T17:15:31;14.30;99.90
8858;DHT22;4465;50.904;4.696;2022-09-30T17:17:58;14.20;99.90
8858;DHT22;4465;50.904;4.696;2022-09-30T17:20:29;14.20;99.90
8858;DHT22;4465;50.904;4.696;2022-09-30T17:22:57;14.10;99.90
8858;DHT22;4465;50.904;4.696;2022-09-30T17:25:23;14.10;99.90
8858;DHT22;4465;50.904;4.696;2022-09-30T17:27:52;14.10;99.90
8858;DHT22;4465;50.904;4.696;2022-09-30T17:30:21;14.10;99.90
8858;DHT22;4465;50.904;4.696;2022-09-30T17:32:46;14.00;99.90
8858;DHT22;4465;50.904;4.696;2022-09-30T17:35:13;14.00;99.90
8858;DHT22;4465;50.904;4.696;2022-09-30T17:37:40;14.00;99.90
8858;DHT22;4465;50.904;4.696;2022-09-30T17:40:06;14.00;99.90
8858;DHT22;4465;50.904;4.696;2022-09-30T17:42:56;13.90;99.90
8858;DHT22;4465;50.904;4.696;2022-09-30T17:45:36;13.80;99.90
8858;DHT22;4465;50.904;4.696;2022-09-30T17:48:02;13.80;99.90
8858;DHT22;4465;50.904;4.696;2022-09-30T17:50:33;13.70;99.90
8858;DHT22;4465;50.904;4.696;2022-09-30T17:52:59;13.70;99.90
8858;DHT22;4465;50.904;4.696;2022-09-30T17:55:27;13.70;99.90
8858;DHT22;4465;50.904;4.696;2022-09-30T17:57:53;13.60;99.90
8858;DHT22;4465;50.904;4.696;2022-09-30T18:00:20;13.60;99.90
8858;DHT22;4465;50.904;4.696;2022-09-30T18:02:46;13.50;99.90
8858;DHT22;4465;50.904;4.696;2022-09-30T18:05:13;13.60;99.90
8858;DHT22;4465;50.904;4.696;2022-09-30T18:07:40;13.50;99.90
8858;DHT22;4465;50.904;4.696;2022-09-30T18:10:06;13.40;99.90
8858;DHT22;4465;50.904;4.696;2022-09-30T18:12:32;13.40;99.90
8858;DHT22;4465;50.904;4.696;2022-09-30T18:15:03;13.40;99.90
8858;DHT22;4465;50.904;4.696;2022-09-30T18:17:29;13.40;99.90
8858;DHT22;4465;50.904;4.696;2022-09-30T18:19:55;13.30;99.90
8858;DHT22;4465;50.904;4.696;2022-09-30T18:22:21;13.30;99.90
8858;DHT22;4465;50.904;4.696;2022-09-30T18:24:47;13.30;99.90
8858;DHT22;4465;50.904;4.696;2022-09-30T18:27:32;13.20;99.90
8858;DHT22;4465;50.904;4.696;2022-09-30T18:30:00;13.20;99.90
8858;DHT22;4465;50.904;4.696;2022-09-30T18:32:29;13.20;99.90
8858;DHT22;4465;50.904;4.696;2022-09-30T18:34:57;13.20;99.90
8858;DHT22;4465;50.904;4.696;2022-09-30T18:37:27;13.20;99.90
8858;DHT22;4465;50.904;4.696;2022-09-30T18:39:57;13.10;99.90
8858;DHT22;4465;50.904;4.696;2022-09-30T18:42:22;13.10;99.90
8858;DHT22;4465;50.904;4.696;2022-09-30T18:44:49;13.10;99.90
8858;DHT22;4465;50.904;4.696;2022-09-30T18:47:15;13.10;99.90
8858;DHT22;4465;50.904;4.696;2022-09-30T18:49:42;13.10;99.90
8858;DHT22;4465;50.904;4.696;2022-09-30T18:52:11;13.10;99.90
8858;DHT22;4465;50.904;4.696;2022-09-30T18:54:37;13.00;99.90
8858;DHT22;4465;50.904;4.696;2022-09-30T18:57:03;13.10;99.90
8858;DHT22;4465;50.904;4.696;2022-09-30T18:59:31;13.00;99.90
8858;DHT22;4465;50.904;4.696;2022-09-30T19:01:57;13.00;99.90
8858;DHT22;4465;50.904;4.696;2022-09-30T19:04:24;13.00;99.90
8858;DHT22;4465;50.904;4.696;2022-09-30T19:06:50;13.00;99.90
8858;DHT22;4465;50.904;4.696;2022-09-30T19:09:16;13.00;99.90
8858;DHT22;4465;50.904;4.696;2022-09-30T19:11:43;13.00;99.90
8858;DHT22;4465;50.904;4.696;2022-09-30T19:14:09;13.00;99.90